sensor_id;sensor_type;location;lat;lon;timestamp;P1;durP1;ratioP1;P2;durP2;ratioP2
32760;SDS011;19126;47.472;7.850;2022-11-15T00:00:45;9.27;;;3.45;;
32760;SDS011;19126;47.472;7.850;2022-11-15T00:03:13;6.60;;;3.72;;
32760;SDS011;19126;47.472;7.850;2022-11-15T00:05:42;5.43;;;3.60;;
32760;SDS011;19126;47.472;7.850;2022-11-15T00:08:10;9.27;;;3.80;;
32760;SDS011;19126;47.472;7.850;2022-11-15T00:10:37;10.20;;;4.55;;
32760;SDS011;19126;47.472;7.850;2022-11-15T00:13:05;8.85;;;5.00;;
32760;SDS011;19126;47.472;7.850;2022-11-15T00:15:34;6.45;;;3.90;;
32760;SDS011;19126;47.472;7.850;2022-11-15T00:18:02;11.07;;;3.45;;
32760;SDS011;19126;47.472;7.850;2022-11-15T00:20:30;6.43;;;3.40;;
32760;SDS011;19126;47.472;7.850;2022-11-15T00:23:00;5.53;;;3.92;;
32760;SDS011;19126;47.472;7.850;2022-11-15T00:25:30;4.80;;;2.97;;
32760;SDS011;19126;47.472;7.850;2022-11-15T00:27:57;12.25;;;3.55;;
32760;SDS011;19126;47.472;7.850;2022-11-15T00:30:26;7.75;;;4.32;;
32760;SDS011;19126;47.472;7.850;2022-11-15T00:32:54;10.40;;;4.15;;
32760;SDS011;19126;47.472;7.850;2022-11-15T00:35:21;6.40;;;3.90;;
32760;SDS011;19126;47.472;7.850;2022-11-15T00:37:48;5.00;;;3.72;;
32760;SDS011;19126;47.472;7.850;2022-11-15T00:40:18;8.93;;;3.45;;
32760;SDS011;19126;47.472;7.850;2022-11-15T00:42:45;11.75;;;4.03;;
32760;SDS011;19126;47.472;7.850;2022-11-15T00:45:13;5.60;;;3.25;;
32760;SDS011;19126;47.472;7.850;2022-11-15T00:47:40;8.65;;;3.78;;
32760;SDS011;19126;47.472;7.850;2022-11-15T00:50:10;20.70;;;5.45;;
32760;SDS011;19126;47.472;7.850;2022-11-15T00:52:37;9.02;;;3.58;;
32760;SDS011;19126;47.472;7.850;2022-11-15T00:55:04;5.20;;;2.97;;
32760;SDS011;19126;47.472;7.850;2022-11-15T00:57:33;4.18;;;3.03;;
32760;SDS011;19126;47.472;7.850;2022-11-15T01:00:00;8.65;;;3.75;;
32760;SDS011;19126;47.472;7.850;2022-11-15T01:02:28;7.15;;;3.28;;
32760;SDS011;19126;47.472;7.850;2022-11-15T01:04:55;7.63;;;2.80;;
32760;SDS011;19126;47.472;7.850;2022-11-15T01:07:22;16.30;;;3.40;;
32760;SDS011;19126;47.472;7.850;2022-11-15T01:09:49;5.15;;;3.38;;
32760;SDS011;19126;47.472;7.850;2022-11-15T01:12:17;3.88;;;2.67;;
32760;SDS011;19126;47.472;7.850;2022-11-15T01:14:45;6.00;;;3.05;;
32760;SDS011;19126;47.472;7.850;2022-11-15T01:17:12;9.73;;;3.58;;
32760;SDS011;19126;47.472;7.850;2022-11-15T01:19:40;6.57;;;2.95;;
32760;SDS011;19126;47.472;7.850;2022-11-15T01:22:07;7.63;;;3.17;;
32760;SDS011;19126;47.472;7.850;2022-11-15T01:24:34;7.25;;;2.70;;
32760;SDS011;19126;47.472;7.850;2022-11-15T01:27:01;10.35;;;3.10;;
32760;SDS011;19126;47.472;7.850;2022-11-15T01:29:29;7.25;;;3.55;;
32760;SDS011;19126;47.472;7.850;2022-11-15T01:31:57;4.47;;;2.80;;
32760;SDS011;19126;47.472;7.850;2022-11-15T01:34:25;4.90;;;2.78;;
32760;SDS011;19126;47.472;7.850;2022-11-15T01:36:52;5.50;;;2.60;;
32760;SDS011;19126;47.472;7.850;2022-11-15T01:39:19;6.40;;;2.97;;
32760;SDS011;19126;47.472;7.850;2022-11-15T01:41:46;4.15;;;2.50;;
32760;SDS011;19126;47.472;7.850;2022-11-15T01:44:34;3.55;;;2.55;;
32760;SDS011;19126;47.472;7.850;2022-11-15T01:47:15;9.65;;;2.53;;
32760;SDS011;19126;47.472;7.850;2022-11-15T01:49:49;4.00;;;2.33;;
32760;SDS011;19126;47.472;7.850;2022-11-15T01:52:23;3.10;;;2.17;;
32760;SDS011;19126;47.472;7.850;2022-11-15T01:54:54;5.20;;;2.42;;
32760;SDS011;19126;47.472;7.850;2022-11-15T01:57:28;3.08;;;2.08;;
32760;SDS011;19126;47.472;7.850;2022-11-15T01:59:55;6.72;;;2.58;;
32760;SDS011;19126;47.472;7.850;2022-11-15T02:02:26;4.30;;;2.55;;
32760;SDS011;19126;47.472;7.850;2022-11-15T02:04:53;5.18;;;2.30;;
32760;SDS011;19126;47.472;7.850;2022-11-15T02:07:21;3.67;;;2.20;;
32760;SDS011;19126;47.472;7.850;2022-11-15T02:09:49;13.20;;;2.88;;
32760;SDS011;19126;47.472;7.850;2022-11-15T02:12:17;5.03;;;2.20;;
32760;SDS011;19126;47.472;7.850;2022-11-15T02:14:48;7.18;;;2.25;;
32760;SDS011;19126;47.472;7.850;2022-11-15T02:17:30;5.53;;;2.13;;
32760;SDS011;19126;47.472;7.850;2022-11-15T02:20:28;5.65;;;2.40;;
32760;SDS011;19126;47.472;7.850;2022-11-15T02:26:41;4.13;;;2.65;;
32760;SDS011;19126;47.472;7.850;2022-11-15T02:29:44;6.90;;;2.75;;
32760;SDS011;19126;47.472;7.850;2022-11-15T02:32:58;5.78;;;3.25;;
32760;SDS011;19126;47.472;7.850;2022-11-15T02:35:35;6.90;;;2.22;;
32760;SDS011;19126;47.472;7.850;2022-11-15T02:38:12;3.08;;;2.28;;
32760;SDS011;19126;47.472;7.850;2022-11-15T02:40:50;3.85;;;2.40;;
32760;SDS011;19126;47.472;7.850;2022-11-15T02:43:24;4.22;;;2.42;;
32760;SDS011;19126;47.472;7.850;2022-11-15T02:46:15;8.82;;;2.75;;
32760;SDS011;19126;47.472;7.850;2022-11-15T02:49:12;11.48;;;3.38;;
32760;SDS011;19126;47.472;7.850;2022-11-15T02:51:42;5.43;;;3.25;;
32760;SDS011;19126;47.472;7.850;2022-11-15T02:54:14;3.50;;;2.63;;
32760;SDS011;19126;47.472;7.850;2022-11-15T02:56:46;3.15;;;2.28;;
32760;SDS011;19126;47.472;7.850;2022-11-15T02:59:21;3.63;;;2.40;;
32760;SDS011;19126;47.472;7.850;2022-11-15T03:02:27;5.55;;;3.00;;
32760;SDS011;19126;47.472;7.850;2022-11-15T03:05:15;11.95;;;3.08;;
32760;SDS011;19126;47.472;7.850;2022-11-15T03:07:51;8.52;;;3.63;;
32760;SDS011;19126;47.472;7.850;2022-11-15T03:10:24;5.38;;;3.30;;
32760;SDS011;19126;47.472;7.850;2022-11-15T03:12:59;7.00;;;2.85;;
32760;SDS011;19126;47.472;7.850;2022-11-15T03:15:36;4.90;;;3.30;;
32760;SDS011;19126;47.472;7.850;2022-11-15T03:18:10;12.15;;;4.00;;
32760;SDS011;19126;47.472;7.850;2022-11-15T03:20:47;8.90;;;3.28;;
32760;SDS011;19126;47.472;7.850;2022-11-15T03:23:16;7.70;;;3.20;;
32760;SDS011;19126;47.472;7.850;2022-11-15T03:25:45;7.53;;;3.53;;
32760;SDS011;19126;47.472;7.850;2022-11-15T03:28:18;6.07;;;4.05;;
32760;SDS011;19126;47.472;7.850;2022-11-15T03:30:49;9.45;;;3.30;;
32760;SDS011;19126;47.472;7.850;2022-11-15T03:33:18;6.50;;;3.50;;
32760;SDS011;19126;47.472;7.850;2022-11-15T03:35:49;13.95;;;3.58;;
32760;SDS011;19126;47.472;7.850;2022-11-15T03:38:19;11.15;;;5.70;;
32760;SDS011;19126;47.472;7.850;2022-11-15T03:43:24;8.00;;;4.40;;
32760;SDS011;19126;47.472;7.850;2022-11-15T03:46:05;6.32;;;3.72;;
32760;SDS011;19126;47.472;7.850;2022-11-15T03:48:39;6.82;;;3.92;;
32760;SDS011;19126;47.472;7.850;2022-11-15T03:51:16;11.43;;;4.45;;
32760;SDS011;19126;47.472;7.850;2022-11-15T03:53:43;7.43;;;3.47;;
32760;SDS011;19126;47.472;7.850;2022-11-15T03:56:11;5.72;;;3.60;;
32760;SDS011;19126;47.472;7.850;2022-11-15T03:58:38;7.47;;;4.32;;
32760;SDS011;19126;47.472;7.850;2022-11-15T04:01:21;14.75;;;4.30;;
32760;SDS011;19126;47.472;7.850;2022-11-15T04:03:51;7.88;;;3.65;;
32760;SDS011;19126;47.472;7.850;2022-11-15T04:06:22;10.35;;;4.18;;
32760;SDS011;19126;47.472;7.850;2022-11-15T04:09:06;5.82;;;4.20;;
32760;SDS011;19126;47.472;7.850;2022-11-15T04:11:45;5.93;;;3.78;;
32760;SDS011;19126;47.472;7.850;2022-11-15T04:14:30;7.88;;;4.25;;
32760;SDS011;19126;47.472;7.850;2022-11-15T04:17:01;5.07;;;4.00;;
32760;SDS011;19126;47.472;7.850;2022-11-15T04:19:48;8.30;;;4.50;;
32760;SDS011;19126;47.472;7.850;2022-11-15T04:22:46;12.57;;;5.28;;
32760;SDS011;19126;47.472;7.850;2022-11-15T04:25:52;8.20;;;4.20;;
32760;SDS011;19126;47.472;7.850;2022-11-15T04:28:26;9.73;;;4.97;;
32760;SDS011;19126;47.472;7.850;2022-11-15T04:31:09;6.55;;;4.95;;
32760;SDS011;19126;47.472;7.850;2022-11-15T04:33:48;10.98;;;8.07;;
32760;SDS011;19126;47.472;7.850;2022-11-15T04:36:17;12.07;;;7.43;;
32760;SDS011;19126;47.472;7.850;2022-11-15T04:39:05;11.20;;;6.72;;
32760;SDS011;19126;47.472;7.850;2022-11-15T04:41:36;11.10;;;6.10;;
32760;SDS011;19126;47.472;7.850;2022-11-15T04:44:20;10.57;;;6.30;;
32760;SDS011;19126;47.472;7.850;2022-11-15T04:46:56;10.65;;;6.00;;
32760;SDS011;19126;47.472;7.850;2022-11-15T04:49:30;14.68;;;6.68;;
32760;SDS011;19126;47.472;7.850;2022-11-15T04:52:06;8.73;;;6.60;;
32760;SDS011;19126;47.472;7.850;2022-11-15T04:54:55;9.10;;;6.53;;
32760;SDS011;19126;47.472;7.850;2022-11-15T04:57:32;9.63;;;6.10;;
32760;SDS011;19126;47.472;7.850;2022-11-15T04:59:59;12.18;;;6.97;;
32760;SDS011;19126;47.472;7.850;2022-11-15T05:02:29;12.50;;;6.70;;
32760;SDS011;19126;47.472;7.850;2022-11-15T05:05:21;19.38;;;8.15;;
32760;SDS011;19126;47.472;7.850;2022-11-15T05:07:58;14.20;;;7.28;;
32760;SDS011;19126;47.472;7.850;2022-11-15T05:10:27;9.70;;;6.00;;
32760;SDS011;19126;47.472;7.850;2022-11-15T05:13:21;9.50;;;5.90;;
32760;SDS011;19126;47.472;7.850;2022-11-15T05:15:50;8.98;;;6.50;;
32760;SDS011;19126;47.472;7.850;2022-11-15T05:18:26;11.15;;;6.35;;
32760;SDS011;19126;47.472;7.850;2022-11-15T05:20:53;11.65;;;6.95;;
32760;SDS011;19126;47.472;7.850;2022-11-15T05:23:21;10.50;;;6.63;;
32760;SDS011;19126;47.472;7.850;2022-11-15T05:25:49;11.32;;;7.15;;
32760;SDS011;19126;47.472;7.850;2022-11-15T05:28:17;10.85;;;7.13;;
32760;SDS011;19126;47.472;7.850;2022-11-15T05:30:44;10.95;;;5.90;;
32760;SDS011;19126;47.472;7.850;2022-11-15T05:33:13;8.20;;;5.43;;
32760;SDS011;19126;47.472;7.850;2022-11-15T05:35:42;9.98;;;6.28;;
32760;SDS011;19126;47.472;7.850;2022-11-15T05:38:20;9.23;;;5.80;;
32760;SDS011;19126;47.472;7.850;2022-11-15T05:40:50;7.10;;;5.57;;
32760;SDS011;19126;47.472;7.850;2022-11-15T05:43:18;14.63;;;7.53;;
32760;SDS011;19126;47.472;7.850;2022-11-15T05:45:45;9.82;;;6.32;;
32760;SDS011;19126;47.472;7.850;2022-11-15T05:48:12;9.25;;;6.38;;
32760;SDS011;19126;47.472;7.850;2022-11-15T05:50:41;7.63;;;6.63;;
32760;SDS011;19126;47.472;7.850;2022-11-15T05:53:13;12.57;;;7.18;;
32760;SDS011;19126;47.472;7.850;2022-11-15T05:55:45;8.13;;;6.13;;
32760;SDS011;19126;47.472;7.850;2022-11-15T05:58:14;17.40;;;7.70;;
32760;SDS011;19126;47.472;7.850;2022-11-15T06:00:41;10.55;;;6.82;;
32760;SDS011;19126;47.472;7.850;2022-11-15T06:03:09;13.65;;;8.00;;
32760;SDS011;19126;47.472;7.850;2022-11-15T06:05:36;11.35;;;7.97;;
32760;SDS011;19126;47.472;7.850;2022-11-15T06:08:03;13.80;;;7.95;;
32760;SDS011;19126;47.472;7.850;2022-11-15T06:10:31;12.43;;;7.93;;
32760;SDS011;19126;47.472;7.850;2022-11-15T06:12:59;8.90;;;6.90;;
32760;SDS011;19126;47.472;7.850;2022-11-15T06:15:29;14.80;;;8.02;;
32760;SDS011;19126;47.472;7.850;2022-11-15T06:17:59;14.30;;;6.75;;
32760;SDS011;19126;47.472;7.850;2022-11-15T06:20:28;9.50;;;6.53;;
32760;SDS011;19126;47.472;7.850;2022-11-15T06:22:56;17.13;;;8.65;;
32760;SDS011;19126;47.472;7.850;2022-11-15T06:25:24;12.50;;;8.02;;
32760;SDS011;19126;47.472;7.850;2022-11-15T06:27:52;11.63;;;8.07;;
32760;SDS011;19126;47.472;7.850;2022-11-15T06:30:19;16.27;;;8.93;;
32760;SDS011;19126;47.472;7.850;2022-11-15T06:32:48;11.48;;;8.32;;
32760;SDS011;19126;47.472;7.850;2022-11-15T06:35:16;16.45;;;9.45;;
32760;SDS011;19126;47.472;7.850;2022-11-15T06:37:43;15.05;;;8.90;;
32760;SDS011;19126;47.472;7.850;2022-11-15T06:40:11;18.85;;;8.35;;
32760;SDS011;19126;47.472;7.850;2022-11-15T06:42:38;11.50;;;8.13;;
32760;SDS011;19126;47.472;7.850;2022-11-15T06:45:05;14.52;;;9.15;;
32760;SDS011;19126;47.472;7.850;2022-11-15T06:47:34;11.70;;;8.77;;
32760;SDS011;19126;47.472;7.850;2022-11-15T06:50:02;10.35;;;7.93;;
32760;SDS011;19126;47.472;7.850;2022-11-15T06:52:31;14.90;;;8.68;;
32760;SDS011;19126;47.472;7.850;2022-11-15T06:54:59;16.42;;;10.98;;
32760;SDS011;19126;47.472;7.850;2022-11-15T06:57:26;14.10;;;8.90;;
32760;SDS011;19126;47.472;7.850;2022-11-15T06:59:53;12.85;;;8.88;;
32760;SDS011;19126;47.472;7.850;2022-11-15T07:02:20;15.75;;;8.63;;
32760;SDS011;19126;47.472;7.850;2022-11-15T07:04:47;14.63;;;9.48;;
32760;SDS011;19126;47.472;7.850;2022-11-15T07:07:16;17.50;;;8.90;;
32760;SDS011;19126;47.472;7.850;2022-11-15T07:09:43;15.25;;;10.32;;
32760;SDS011;19126;47.472;7.850;2022-11-15T07:12:10;16.40;;;9.95;;
32760;SDS011;19126;47.472;7.850;2022-11-15T07:14:37;11.90;;;9.02;;
32760;SDS011;19126;47.472;7.850;2022-11-15T07:17:05;14.63;;;9.52;;
32760;SDS011;19126;47.472;7.850;2022-11-15T07:19:32;13.80;;;8.55;;
32760;SDS011;19126;47.472;7.850;2022-11-15T07:22:00;11.63;;;7.97;;
32760;SDS011;19126;47.472;7.850;2022-11-15T07:24:28;12.93;;;8.05;;
32760;SDS011;19126;47.472;7.850;2022-11-15T07:26:55;16.45;;;7.90;;
32760;SDS011;19126;47.472;7.850;2022-11-15T07:29:22;12.57;;;8.32;;
32760;SDS011;19126;47.472;7.850;2022-11-15T07:31:50;14.60;;;7.70;;
32760;SDS011;19126;47.472;7.850;2022-11-15T07:34:17;11.73;;;8.13;;
32760;SDS011;19126;47.472;7.850;2022-11-15T07:36:44;13.52;;;8.25;;
32760;SDS011;19126;47.472;7.850;2022-11-15T07:39:11;12.07;;;6.70;;
32760;SDS011;19126;47.472;7.850;2022-11-15T07:41:40;9.60;;;6.75;;
32760;SDS011;19126;47.472;7.850;2022-11-15T07:44:08;11.15;;;7.13;;
32760;SDS011;19126;47.472;7.850;2022-11-15T07:46:35;11.45;;;6.88;;
32760;SDS011;19126;47.472;7.850;2022-11-15T07:49:02;8.07;;;6.63;;
32760;SDS011;19126;47.472;7.850;2022-11-15T07:51:32;9.55;;;6.80;;
32760;SDS011;19126;47.472;7.850;2022-11-15T07:54:01;11.45;;;6.68;;
32760;SDS011;19126;47.472;7.850;2022-11-15T07:56:29;10.95;;;7.03;;
32760;SDS011;19126;47.472;7.850;2022-11-15T07:58:57;16.80;;;6.95;;
32760;SDS011;19126;47.472;7.850;2022-11-15T08:01:26;15.77;;;7.20;;
32760;SDS011;19126;47.472;7.850;2022-11-15T08:03:53;9.18;;;6.40;;
32760;SDS011;19126;47.472;7.850;2022-11-15T08:06:20;11.10;;;6.53;;
32760;SDS011;19126;47.472;7.850;2022-11-15T08:08:47;10.68;;;6.85;;
32760;SDS011;19126;47.472;7.850;2022-11-15T08:11:14;13.57;;;6.35;;
32760;SDS011;19126;47.472;7.850;2022-11-15T08:13:41;13.38;;;6.63;;
32760;SDS011;19126;47.472;7.850;2022-11-15T08:16:10;11.15;;;7.10;;
32760;SDS011;19126;47.472;7.850;2022-11-15T08:18:37;53.58;;;28.75;;
32760;SDS011;19126;47.472;7.850;2022-11-15T08:21:04;42.97;;;22.45;;
32760;SDS011;19126;47.472;7.850;2022-11-15T08:23:32;34.03;;;20.73;;
32760;SDS011;19126;47.472;7.850;2022-11-15T08:25:59;17.77;;;11.70;;
32760;SDS011;19126;47.472;7.850;2022-11-15T08:28:28;14.43;;;10.93;;
32760;SDS011;19126;47.472;7.850;2022-11-15T08:30:56;12.77;;;9.35;;
32760;SDS011;19126;47.472;7.850;2022-11-15T08:33:24;13.25;;;9.88;;
32760;SDS011;19126;47.472;7.850;2022-11-15T08:35:52;15.75;;;9.70;;
32760;SDS011;19126;47.472;7.850;2022-11-15T08:38:23;16.58;;;7.97;;
32760;SDS011;19126;47.472;7.850;2022-11-15T08:40:50;13.90;;;7.32;;
32760;SDS011;19126;47.472;7.850;2022-11-15T08:43:18;14.18;;;6.90;;
32760;SDS011;19126;47.472;7.850;2022-11-15T08:45:45;8.35;;;6.25;;
32760;SDS011;19126;47.472;7.850;2022-11-15T08:48:13;10.25;;;6.95;;
32760;SDS011;19126;47.472;7.850;2022-11-15T08:50:41;10.35;;;7.30;;
32760;SDS011;19126;47.472;7.850;2022-11-15T08:53:09;9.55;;;7.65;;
32760;SDS011;19126;47.472;7.850;2022-11-15T08:55:37;11.43;;;7.93;;
32760;SDS011;19126;47.472;7.850;2022-11-15T08:58:06;10.32;;;7.63;;
32760;SDS011;19126;47.472;7.850;2022-11-15T09:00:34;22.65;;;8.57;;
32760;SDS011;19126;47.472;7.850;2022-11-15T09:03:03;12.27;;;8.88;;
32760;SDS011;19126;47.472;7.850;2022-11-15T09:05:31;16.13;;;10.30;;
32760;SDS011;19126;47.472;7.850;2022-11-15T09:07:59;14.48;;;9.48;;
32760;SDS011;19126;47.472;7.850;2022-11-15T09:10:26;13.10;;;9.20;;
32760;SDS011;19126;47.472;7.850;2022-11-15T09:12:54;13.68;;;9.00;;
32760;SDS011;19126;47.472;7.850;2022-11-15T09:15:23;12.23;;;8.65;;
32760;SDS011;19126;47.472;7.850;2022-11-15T09:17:50;14.20;;;9.40;;
32760;SDS011;19126;47.472;7.850;2022-11-15T09:20:17;10.63;;;7.90;;
32760;SDS011;19126;47.472;7.850;2022-11-15T09:22:45;13.98;;;8.07;;
32760;SDS011;19126;47.472;7.850;2022-11-15T09:25:13;9.85;;;6.95;;
32760;SDS011;19126;47.472;7.850;2022-11-15T09:27:40;9.80;;;6.55;;
32760;SDS011;19126;47.472;7.850;2022-11-15T09:30:09;12.93;;;7.63;;
32760;SDS011;19126;47.472;7.850;2022-11-15T09:32:37;12.10;;;8.23;;
32760;SDS011;19126;47.472;7.850;2022-11-15T09:35:04;11.68;;;7.70;;
32760;SDS011;19126;47.472;7.850;2022-11-15T09:37:32;12.30;;;7.60;;
32760;SDS011;19126;47.472;7.850;2022-11-15T09:39:59;15.80;;;7.65;;
32760;SDS011;19126;47.472;7.850;2022-11-15T09:42:42;16.58;;;7.90;;
32760;SDS011;19126;47.472;7.850;2022-11-15T09:45:28;8.57;;;6.93;;
32760;SDS011;19126;47.472;7.850;2022-11-15T09:48:09;8.93;;;6.93;;
32760;SDS011;19126;47.472;7.850;2022-11-15T09:50:58;10.23;;;7.50;;
32760;SDS011;19126;47.472;7.850;2022-11-15T09:53:26;10.40;;;6.88;;
32760;SDS011;19126;47.472;7.850;2022-11-15T09:55:59;11.50;;;7.47;;
32760;SDS011;19126;47.472;7.850;2022-11-15T09:58:33;12.45;;;7.10;;
32760;SDS011;19126;47.472;7.850;2022-11-15T10:01:08;13.93;;;7.28;;
32760;SDS011;19126;47.472;7.850;2022-11-15T10:03:43;10.93;;;7.75;;
32760;SDS011;19126;47.472;7.850;2022-11-15T10:06:14;11.90;;;7.68;;
32760;SDS011;19126;47.472;7.850;2022-11-15T10:08:54;11.50;;;8.15;;
32760;SDS011;19126;47.472;7.850;2022-11-15T10:11:26;14.98;;;9.93;;
32760;SDS011;19126;47.472;7.850;2022-11-15T10:14:00;22.85;;;10.65;;
32760;SDS011;19126;47.472;7.850;2022-11-15T10:20:05;10.27;;;7.75;;
32760;SDS011;19126;47.472;7.850;2022-11-15T10:22:44;19.50;;;10.15;;
32760;SDS011;19126;47.472;7.850;2022-11-15T10:25:18;19.85;;;10.55;;
32760;SDS011;19126;47.472;7.850;2022-11-15T10:27:55;16.48;;;10.48;;
32760;SDS011;19126;47.472;7.850;2022-11-15T10:30:31;19.25;;;9.38;;
32760;SDS011;19126;47.472;7.850;2022-11-15T10:33:08;11.90;;;8.13;;
32760;SDS011;19126;47.472;7.850;2022-11-15T10:38:53;23.45;;;9.93;;
32760;SDS011;19126;47.472;7.850;2022-11-15T10:41:29;15.52;;;8.07;;
32760;SDS011;19126;47.472;7.850;2022-11-15T10:44:07;10.73;;;7.07;;
32760;SDS011;19126;47.472;7.850;2022-11-15T10:47:02;11.88;;;7.47;;
32760;SDS011;19126;47.472;7.850;2022-11-15T10:49:53;11.30;;;6.70;;
32760;SDS011;19126;47.472;7.850;2022-11-15T10:52:26;7.75;;;6.28;;
32760;SDS011;19126;47.472;7.850;2022-11-15T10:54:55;15.75;;;7.00;;
32760;SDS011;19126;47.472;7.850;2022-11-15T10:57:29;9.13;;;6.07;;
32760;SDS011;19126;47.472;7.850;2022-11-15T11:00:01;8.00;;;5.65;;
32760;SDS011;19126;47.472;7.850;2022-11-15T11:02:34;10.23;;;6.05;;
32760;SDS011;19126;47.472;7.850;2022-11-15T11:05:04;9.40;;;5.90;;
32760;SDS011;19126;47.472;7.850;2022-11-15T11:07:54;12.43;;;5.40;;
32760;SDS011;19126;47.472;7.850;2022-11-15T11:10:24;10.18;;;5.53;;
32760;SDS011;19126;47.472;7.850;2022-11-15T11:12:52;6.75;;;4.57;;
32760;SDS011;19126;47.472;7.850;2022-11-15T11:15:19;6.38;;;4.70;;
32760;SDS011;19126;47.472;7.850;2022-11-15T11:17:54;5.20;;;4.30;;
32760;SDS011;19126;47.472;7.850;2022-11-15T11:20:33;6.50;;;4.30;;
32760;SDS011;19126;47.472;7.850;2022-11-15T11:23:19;8.27;;;5.47;;
32760;SDS011;19126;47.472;7.850;2022-11-15T11:26:07;5.75;;;4.70;;
32760;SDS011;19126;47.472;7.850;2022-11-15T11:28:53;9.10;;;4.90;;
32760;SDS011;19126;47.472;7.850;2022-11-15T11:31:29;7.65;;;4.45;;
32760;SDS011;19126;47.472;7.850;2022-11-15T11:34:09;6.25;;;4.63;;
32760;SDS011;19126;47.472;7.850;2022-11-15T11:36:48;6.70;;;4.72;;
32760;SDS011;19126;47.472;7.850;2022-11-15T11:39:24;7.07;;;4.82;;
32760;SDS011;19126;47.472;7.850;2022-11-15T11:42:07;9.07;;;4.63;;
32760;SDS011;19126;47.472;7.850;2022-11-15T11:44:47;10.18;;;5.53;;
32760;SDS011;19126;47.472;7.850;2022-11-15T11:47:28;8.57;;;4.47;;
32760;SDS011;19126;47.472;7.850;2022-11-15T11:50:02;7.05;;;4.03;;
32760;SDS011;19126;47.472;7.850;2022-11-15T11:52:41;10.25;;;4.57;;
32760;SDS011;19126;47.472;7.850;2022-11-15T11:55:19;9.32;;;4.72;;
32760;SDS011;19126;47.472;7.850;2022-11-15T11:57:51;7.00;;;4.28;;
32760;SDS011;19126;47.472;7.850;2022-11-15T12:00:28;6.75;;;4.65;;
32760;SDS011;19126;47.472;7.850;2022-11-15T12:03:03;7.45;;;4.35;;
32760;SDS011;19126;47.472;7.850;2022-11-15T12:05:40;7.63;;;3.85;;
32760;SDS011;19126;47.472;7.850;2022-11-15T12:08:21;7.15;;;3.95;;
32760;SDS011;19126;47.472;7.850;2022-11-15T12:10:59;6.93;;;4.22;;
32760;SDS011;19126;47.472;7.850;2022-11-15T12:13:35;11.07;;;4.20;;
32760;SDS011;19126;47.472;7.850;2022-11-15T12:16:06;6.40;;;3.80;;
32760;SDS011;19126;47.472;7.850;2022-11-15T12:18:44;6.10;;;3.85;;
32760;SDS011;19126;47.472;7.850;2022-11-15T12:21:17;8.15;;;3.70;;
32760;SDS011;19126;47.472;7.850;2022-11-15T12:23:57;6.63;;;4.10;;
32760;SDS011;19126;47.472;7.850;2022-11-15T12:26:32;9.57;;;4.32;;
32760;SDS011;19126;47.472;7.850;2022-11-15T12:29:08;9.38;;;4.55;;
32760;SDS011;19126;47.472;7.850;2022-11-15T12:31:43;4.55;;;3.60;;
32760;SDS011;19126;47.472;7.850;2022-11-15T12:34:29;8.20;;;4.65;;
32760;SDS011;19126;47.472;7.850;2022-11-15T12:40:21;5.40;;;3.47;;
32760;SDS011;19126;47.472;7.850;2022-11-15T12:43:01;4.80;;;3.13;;
32760;SDS011;19126;47.472;7.850;2022-11-15T12:46:04;8.40;;;3.40;;
32760;SDS011;19126;47.472;7.850;2022-11-15T12:48:47;4.78;;;2.75;;
32760;SDS011;19126;47.472;7.850;2022-11-15T12:51:20;3.60;;;2.60;;
32760;SDS011;19126;47.472;7.850;2022-11-15T13:03:20;4.68;;;3.70;;
32760;SDS011;19126;47.472;7.850;2022-11-15T13:05:56;6.55;;;3.13;;
32760;SDS011;19126;47.472;7.850;2022-11-15T13:12:51;6.38;;;3.70;;
32760;SDS011;19126;47.472;7.850;2022-11-15T13:15:38;4.90;;;3.33;;
32760;SDS011;19126;47.472;7.850;2022-11-15T13:18:26;5.63;;;3.53;;
32760;SDS011;19126;47.472;7.850;2022-11-15T13:21:04;5.30;;;2.88;;
32760;SDS011;19126;47.472;7.850;2022-11-15T13:24:09;3.50;;;2.65;;
32760;SDS011;19126;47.472;7.850;2022-11-15T13:26:39;5.13;;;2.45;;
32760;SDS011;19126;47.472;7.850;2022-11-15T13:29:16;6.80;;;2.47;;
32760;SDS011;19126;47.472;7.850;2022-11-15T13:31:45;4.00;;;3.00;;
32760;SDS011;19126;47.472;7.850;2022-11-15T13:34:21;4.45;;;3.25;;
32760;SDS011;19126;47.472;7.850;2022-11-15T13:36:55;5.67;;;3.57;;
32760;SDS011;19126;47.472;7.850;2022-11-15T13:39:27;7.90;;;3.58;;
32760;SDS011;19126;47.472;7.850;2022-11-15T13:41:56;5.72;;;2.78;;
32760;SDS011;19126;47.472;7.850;2022-11-15T13:44:27;7.38;;;3.10;;
32760;SDS011;19126;47.472;7.850;2022-11-15T13:47:03;6.05;;;3.38;;
32760;SDS011;19126;47.472;7.850;2022-11-15T13:49:33;4.85;;;3.28;;
32760;SDS011;19126;47.472;7.850;2022-11-15T13:52:04;4.93;;;3.20;;
32760;SDS011;19126;47.472;7.850;2022-11-15T13:54:34;4.28;;;3.53;;
32760;SDS011;19126;47.472;7.850;2022-11-15T13:57:09;15.70;;;4.00;;
32760;SDS011;19126;47.472;7.850;2022-11-15T13:59:45;6.95;;;4.50;;
32760;SDS011;19126;47.472;7.850;2022-11-15T14:02:17;10.55;;;4.00;;
32760;SDS011;19126;47.472;7.850;2022-11-15T14:04:48;11.07;;;4.35;;
32760;SDS011;19126;47.472;7.850;2022-11-15T14:07:20;6.90;;;4.47;;
32760;SDS011;19126;47.472;7.850;2022-11-15T14:09:50;6.55;;;4.95;;
32760;SDS011;19126;47.472;7.850;2022-11-15T14:12:28;14.55;;;4.70;;
32760;SDS011;19126;47.472;7.850;2022-11-15T14:14:59;6.55;;;4.78;;
32760;SDS011;19126;47.472;7.850;2022-11-15T14:17:45;9.88;;;4.45;;
32760;SDS011;19126;47.472;7.850;2022-11-15T14:20:19;12.85;;;4.63;;
32760;SDS011;19126;47.472;7.850;2022-11-15T14:22:53;9.27;;;4.93;;
32760;SDS011;19126;47.472;7.850;2022-11-15T14:25:22;5.93;;;4.55;;
32760;SDS011;19126;47.472;7.850;2022-11-15T14:30:44;14.97;;;6.23;;
32760;SDS011;19126;47.472;7.850;2022-11-15T14:33:19;7.70;;;5.55;;
32760;SDS011;19126;47.472;7.850;2022-11-15T14:35:50;14.38;;;6.18;;
32760;SDS011;19126;47.472;7.850;2022-11-15T14:38:18;7.03;;;5.55;;
32760;SDS011;19126;47.472;7.850;2022-11-15T14:40:45;10.63;;;7.10;;
32760;SDS011;19126;47.472;7.850;2022-11-15T14:43:13;10.77;;;6.75;;
32760;SDS011;19126;47.472;7.850;2022-11-15T14:45:40;16.30;;;7.78;;
32760;SDS011;19126;47.472;7.850;2022-11-15T14:48:09;12.77;;;6.50;;
32760;SDS011;19126;47.472;7.850;2022-11-15T14:50:36;10.70;;;7.30;;
32760;SDS011;19126;47.472;7.850;2022-11-15T14:53:04;14.50;;;7.55;;
32760;SDS011;19126;47.472;7.850;2022-11-15T14:55:32;15.60;;;8.23;;
32760;SDS011;19126;47.472;7.850;2022-11-15T14:58:02;13.05;;;8.23;;
32760;SDS011;19126;47.472;7.850;2022-11-15T15:00:30;16.40;;;8.77;;
32760;SDS011;19126;47.472;7.850;2022-11-15T15:02:57;12.95;;;8.27;;
32760;SDS011;19126;47.472;7.850;2022-11-15T15:05:29;11.25;;;8.57;;
32760;SDS011;19126;47.472;7.850;2022-11-15T15:07:59;11.90;;;8.27;;
32760;SDS011;19126;47.472;7.850;2022-11-15T15:10:27;10.60;;;7.97;;
32760;SDS011;19126;47.472;7.850;2022-11-15T15:12:59;15.70;;;8.48;;
32760;SDS011;19126;47.472;7.850;2022-11-15T15:15:29;42.38;;;17.60;;
32760;SDS011;19126;47.472;7.850;2022-11-15T15:18:00;13.95;;;8.95;;
32760;SDS011;19126;47.472;7.850;2022-11-15T15:20:29;16.80;;;9.20;;
32760;SDS011;19126;47.472;7.850;2022-11-15T15:22:56;23.48;;;12.40;;
32760;SDS011;19126;47.472;7.850;2022-11-15T15:25:26;15.27;;;9.23;;
32760;SDS011;19126;47.472;7.850;2022-11-15T15:27:57;17.10;;;9.80;;
32760;SDS011;19126;47.472;7.850;2022-11-15T15:30:26;18.88;;;10.95;;
32760;SDS011;19126;47.472;7.850;2022-11-15T15:32:56;19.50;;;11.55;;
32760;SDS011;19126;47.472;7.850;2022-11-15T15:35:23;15.88;;;8.35;;
32760;SDS011;19126;47.472;7.850;2022-11-15T15:37:58;19.45;;;9.27;;
32760;SDS011;19126;47.472;7.850;2022-11-15T15:40:27;15.77;;;8.13;;
32760;SDS011;19126;47.472;7.850;2022-11-15T15:42:57;14.63;;;8.97;;
32760;SDS011;19126;47.472;7.850;2022-11-15T15:45:25;16.88;;;8.00;;